Plymouth, Nebraska
Current Conditions -  °F | °C
As of 6:15 PM on Wednesday 28 Jan 2015 (Local Time) from KBIE Reporting Station
Clear Clear  
Wind Chill: 53°   Ceiling: Unl
Heat Index: 53°   Visibility: 10mi
Dew Point: 33°   Wind: 6mph
Humidity: 46%   Direction: 270°W
Pressure: 29.73"   Gusts: NA
Location:  40.3°N, 96.99°W
Report Text: KBIE 290015Z AUTO 27005KT 10SM CLR 12/00 A2973 RMK AO2 T01170003
Loading
Personal Weather Stations






























Interactive Weather Map New forecast layout! Learn more

10-Day Weather Forecast

Advertisements
Track Severe Weather on mobile